createdAt,value
2019-05-29T00:01:04.440Z,101389.02
2019-05-29T00:02:10.083Z,101388.16
2019-05-29T00:03:36.168Z,101395.92
2019-05-29T00:05:00.556Z,101396.03
2019-05-29T00:06:06.265Z,101393.36
2019-05-29T00:07:51.361Z,101399.54
2019-05-29T00:08:56.916Z,101399.54
2019-05-29T00:11:26.814Z,101399.31
2019-05-29T00:12:32.030Z,101405.22
2019-05-29T00:13:37.545Z,101405.22
2019-05-29T00:14:42.493Z,101406.22
2019-05-29T00:15:48.003Z,101404.51
2019-05-29T00:18:35.985Z,101411.78
2019-05-29T00:19:40.965Z,101406.33
2019-05-29T00:20:46.885Z,101406.95
2019-05-29T00:27:15.706Z,101410.07
2019-05-29T00:28:21.811Z,101410.31
2019-05-29T00:32:15.435Z,101419.77
2019-05-29T00:33:21.238Z,101428.86
2019-05-29T00:34:26.192Z,101424.86
2019-05-29T00:35:50.186Z,101424.59
2019-05-29T00:37:14.702Z,101426.77
2019-05-29T00:38:20.205Z,101431.25
2019-05-29T00:39:25.166Z,101431.38
2019-05-29T00:40:49.233Z,101433.56
2019-05-29T00:41:55.788Z,101432.34
2019-05-29T00:43:01.619Z,101433.19
2019-05-29T00:44:33.919Z,101437.66
2019-05-29T00:46:11.392Z,101436.33
2019-05-29T00:49:45.371Z,101439.23
2019-05-29T00:51:10.945Z,101437.41
2019-05-29T00:54:20.619Z,101449.24
2019-05-29T00:55:45.342Z,101440.27
2019-05-29T00:56:50.313Z,101442.55
2019-05-29T00:58:15.027Z,101442.18
2019-05-29T00:59:20.420Z,101438.80
2019-05-29T01:00:45.141Z,101445.45
2019-05-29T01:06:28.153Z,101449.92
2019-05-29T01:07:33.117Z,101451.86
2019-05-29T01:08:38.612Z,101456.33
2019-05-29T01:10:02.770Z,101455.84
2019-05-29T01:11:26.755Z,101456.33
2019-05-29T01:14:15.173Z,101458.75
2019-05-29T01:17:24.534Z,101461.61
2019-05-29T01:18:48.572Z,101459.94
2019-05-29T01:20:13.947Z,101461.74
2019-05-29T01:23:42.710Z,101463.41
2019-05-29T01:25:07.546Z,101470.30
2019-05-29T01:26:12.767Z,101472.81
2019-05-29T01:27:18.821Z,101470.38
2019-05-29T01:28:44.403Z,101472.70
2019-05-29T01:29:49.920Z,101477.27
2019-05-29T01:31:15.118Z,101477.73
2019-05-29T01:32:40.952Z,101482.23
2019-05-29T01:33:47.361Z,101478.48
2019-05-29T01:34:52.919Z,101477.34
2019-05-29T01:35:57.832Z,101480.39
2019-05-29T01:37:22.353Z,101482.57
2019-05-29T01:38:46.455Z,101486.56
2019-05-29T01:39:51.974Z,101489.31
2019-05-29T01:40:56.885Z,101490.64
2019-05-29T01:42:02.403Z,101489.83
2019-05-29T01:46:59.796Z,101486.56
2019-05-29T01:48:23.946Z,101494.53
2019-05-29T01:49:48.707Z,101494.63
2019-05-29T01:50:53.944Z,101496.95
2019-05-29T01:52:19.676Z,101499.23
2019-05-29T01:53:45.340Z,101501.89
2019-05-29T01:54:50.902Z,101500.31
2019-05-29T01:56:15.586Z,101505.63
2019-05-29T01:57:39.693Z,101511.42
2019-05-29T01:59:04.409Z,101504.78
2019-05-29T02:00:49.031Z,101514.18
2019-05-29T02:03:40.618Z,101511.88
2019-05-29T02:04:46.190Z,101511.63
2019-05-29T02:06:10.315Z,101513.53
2019-05-29T02:07:34.318Z,101517.66
2019-05-29T02:08:58.458Z,101516.33
2019-05-29T02:11:47.944Z,101519.45
2019-05-29T02:14:18.461Z,101537.12
2019-05-29T02:16:02.908Z,101525.63
2019-05-29T02:17:27.995Z,101529.23
2019-05-29T02:20:23.620Z,101530.32
2019-05-29T02:21:47.940Z,101535.73
2019-05-29T02:23:12.003Z,101536.81
2019-05-29T02:26:00.153Z,101540.89
2019-05-29T02:27:25.579Z,101550.58
2019-05-29T02:28:50.884Z,101547.92
2019-05-29T02:29:56.381Z,101547.19
2019-05-29T02:31:01.363Z,101550.42
2019-05-29T02:32:25.696Z,101542.95
2019-05-29T02:33:30.583Z,101551.75
2019-05-29T02:34:36.216Z,101552.35
2019-05-29T02:37:26.113Z,101553.08
2019-05-29T02:39:09.937Z,101557.57
2019-05-29T02:40:34.664Z,101556.81
2019-05-29T02:41:58.247Z,101559.22
2019-05-29T02:43:03.176Z,101560.17
2019-05-29T02:44:27.676Z,101556.78
2019-05-29T02:45:55.009Z,101562.58
2019-05-29T02:50:33.495Z,101562.89
2019-05-29T02:52:18.093Z,101553.24
2019-05-29T02:53:42.534Z,101557.32
2019-05-29T02:55:07.266Z,101559.13
2019-05-29T02:56:31.388Z,101563.23
2019-05-29T02:57:55.353Z,101562.38
2019-05-29T02:59:21.088Z,101563.33
2019-05-29T03:02:54.227Z,101562.22
2019-05-29T03:04:18.383Z,101568.14
2019-05-29T03:05:24.036Z,101568.70
2019-05-29T03:06:48.173Z,101565.54
2019-05-29T03:08:34.378Z,101570.47
2019-05-29T03:10:18.042Z,101569.14
2019-05-29T03:11:42.768Z,101571.92
2019-05-29T03:13:06.886Z,101570.69
2019-05-29T03:14:31.793Z,101573.00
2019-05-29T03:16:09.557Z,101575.27
2019-05-29T03:17:23.805Z,101572.45
2019-05-29T03:20:34.433Z,101576.66
2019-05-29T03:23:24.254Z,101581.96
2019-05-29T03:24:50.083Z,101580.25
2019-05-29T03:25:55.071Z,101585.95
2019-05-29T03:27:00.585Z,101582.56
2019-05-29T03:31:41.926Z,101594.13
2019-05-29T03:32:59.568Z,101598.72
2019-05-29T03:36:37.524Z,101594.73
2019-05-29T03:38:14.510Z,101601.72
2019-05-29T03:39:19.490Z,101604.84
2019-05-29T03:40:26.518Z,101604.02
2019-05-29T03:42:10.301Z,101604.97
2019-05-29T03:44:40.115Z,101608.95
2019-05-29T03:45:45.616Z,101608.09
2019-05-29T03:46:50.542Z,101609.91
2019-05-29T03:47:56.117Z,101615.69
2019-05-29T03:49:01.078Z,101615.21
2019-05-29T03:52:15.722Z,101608.95
2019-05-29T03:53:21.257Z,101612.56
2019-05-29T03:54:27.050Z,101610.50
2019-05-29T03:55:52.880Z,101608.31
2019-05-29T03:56:57.847Z,101612.30
2019-05-29T03:58:03.653Z,101609.27
2019-05-29T03:59:08.613Z,101610.59
2019-05-29T04:00:53.487Z,101618.94
2019-05-29T04:02:17.614Z,101616.66
2019-05-29T04:03:23.175Z,101621.47
2019-05-29T04:04:29.035Z,101618.34
2019-05-29T04:05:55.097Z,101623.95
2019-05-29T04:07:00.295Z,101619.58
2019-05-29T04:09:31.294Z,101628.75
2019-05-29T04:11:15.464Z,101623.95
2019-05-29T04:12:40.221Z,101628.66
2019-05-29T04:13:45.274Z,101626.39
2019-05-29T04:15:31.504Z,101633.37
2019-05-29T04:17:35.625Z,101631.70
2019-05-29T04:19:20.300Z,101633.97
2019-05-29T04:20:27.512Z,101637.95
2019-05-29T04:22:34.250Z,101637.23
2019-05-29T04:24:38.586Z,101635.05
2019-05-29T04:26:23.174Z,101645.19
2019-05-29T04:28:07.848Z,101648.20
2019-05-29T04:29:52.435Z,101649.91
2019-05-29T04:34:25.313Z,101660.53
2019-05-29T04:35:30.567Z,101661.86
2019-05-29T04:36:36.916Z,101667.17
2019-05-29T04:38:02.555Z,101664.52
2019-05-29T04:39:47.132Z,101668.89
2019-05-29T04:40:52.045Z,101671.42
2019-05-29T04:42:16.053Z,101672.19
2019-05-29T04:43:20.984Z,101665.42
2019-05-29T04:44:44.980Z,101680.41
2019-05-29T04:46:09.374Z,101676.78
2019-05-29T04:47:14.920Z,101682.95
2019-05-29T04:48:40.467Z,101683.42
2019-05-29T04:50:45.014Z,101687.79
2019-05-29T04:52:09.167Z,101689.97
2019-05-29T04:53:33.638Z,101697.09
2019-05-29T04:54:59.486Z,101694.91
2019-05-29T04:56:24.177Z,101700.34
2019-05-29T04:57:29.322Z,101695.38
2019-05-29T04:58:55.788Z,101699.36
2019-05-29T05:00:00.830Z,101700.12
2019-05-29T05:02:31.101Z,101704.76
2019-05-29T05:03:57.455Z,101713.94
2019-05-29T05:05:02.560Z,101707.20
2019-05-29T05:06:08.161Z,101707.08
2019-05-29T05:07:33.193Z,101712.56
2019-05-29T05:10:42.397Z,101716.13
2019-05-29T05:11:48.081Z,101714.70
2019-05-29T05:13:12.290Z,101719.69
2019-05-29T05:14:37.803Z,101725.17
2019-05-29T05:18:06.680Z,101720.34
2019-05-29T05:20:36.463Z,101721.45
2019-05-29T05:23:26.906Z,101718.11
2019-05-29T05:24:51.088Z,101719.06
2019-05-29T05:26:15.108Z,101716.44
2019-05-29T05:27:21.783Z,101722.55
2019-05-29T05:28:27.427Z,101722.00
2019-05-29T05:29:51.575Z,101725.44
2019-05-29T05:30:57.278Z,101722.83
2019-05-29T05:32:02.449Z,101721.40
2019-05-29T05:33:27.143Z,101718.50
2019-05-29T05:34:32.665Z,101721.54
2019-05-29T05:37:02.766Z,101722.83
2019-05-29T05:38:27.071Z,101733.38
2019-05-29T05:39:51.301Z,101734.36
2019-05-29T05:41:16.071Z,101730.00
2019-05-29T05:42:21.036Z,101736.16
2019-05-29T05:43:45.044Z,101734.94
2019-05-29T05:44:50.017Z,101739.78
2019-05-29T05:45:55.607Z,101741.36
2019-05-29T05:47:00.682Z,101737.23
2019-05-29T05:48:06.628Z,101732.24
2019-05-29T05:49:31.298Z,101734.64
2019-05-29T05:51:16.171Z,101737.17
2019-05-29T05:52:41.641Z,101742.16
2019-05-29T05:54:07.454Z,101739.34
2019-05-29T05:55:52.049Z,101741.84
2019-05-29T05:57:16.460Z,101741.36
2019-05-29T05:58:21.984Z,101748.23
2019-05-29T05:59:46.122Z,101744.45
2019-05-29T06:01:31.729Z,101750.61
2019-05-29T06:02:56.817Z,101750.80
2019-05-29T06:04:02.346Z,101753.32
2019-05-29T06:05:46.977Z,101751.02
2019-05-29T06:07:32.291Z,101751.98
2019-05-29T06:10:01.781Z,101758.09
2019-05-29T06:11:25.914Z,101758.73
2019-05-29T06:12:32.260Z,101757.66
2019-05-29T06:14:16.791Z,101756.66
2019-05-29T06:15:42.835Z,101761.03
2019-05-29T06:17:26.987Z,101760.28
2019-05-29T06:20:56.384Z,101767.41
2019-05-29T06:22:01.455Z,101768.43
2019-05-29T06:23:25.808Z,101770.09
2019-05-29T06:24:31.196Z,101768.00
2019-05-29T06:25:38.628Z,101764.88
2019-05-29T06:27:22.067Z,101775.16
2019-05-29T06:28:27.904Z,101771.03
2019-05-29T06:29:52.040Z,101764.82
2019-05-29T06:30:57.636Z,101771.61
2019-05-29T06:32:02.981Z,101780.30
2019-05-29T06:33:27.789Z,101776.74
2019-05-29T06:34:33.512Z,101777.05
2019-05-29T06:37:43.779Z,101781.69
2019-05-29T06:39:09.278Z,101778.74
2019-05-29T06:40:53.898Z,101787.20
2019-05-29T06:42:18.127Z,101781.24
2019-05-29T06:44:03.244Z,101779.75
2019-05-29T06:45:47.843Z,101786.81
2019-05-29T06:47:31.364Z,101788.16
2019-05-29T06:48:49.322Z,101783.86
2019-05-29T06:50:03.147Z,101783.86
2019-05-29T06:51:27.144Z,101782.95
2019-05-29T06:52:51.637Z,101782.13
2019-05-29T06:56:01.865Z,101776.88
2019-05-29T06:57:45.622Z,101786.84
2019-05-29T06:58:50.746Z,101784.22
2019-05-29T06:59:56.474Z,101789.83
2019-05-29T07:01:20.536Z,101791.86
2019-05-29T07:02:44.951Z,101794.15
2019-05-29T07:03:49.957Z,101790.98
2019-05-29T07:06:38.636Z,101795.77
2019-05-29T07:07:44.510Z,101803.43
2019-05-29T07:09:10.429Z,101800.75
2019-05-29T07:10:55.066Z,101797.92
2019-05-29T07:12:19.461Z,101798.77
2019-05-29T07:13:25.268Z,101801.18
2019-05-29T07:14:30.263Z,101798.50
2019-05-29T07:15:54.964Z,101795.98
2019-05-29T07:16:59.958Z,101805.84
2019-05-29T07:19:18.361Z,101799.78
2019-05-29T07:20:50.317Z,101805.41
2019-05-29T07:21:55.254Z,101803.23
2019-05-29T07:23:01.255Z,101805.97
2019-05-29T07:24:06.328Z,101803.78
2019-05-29T07:25:31.046Z,101806.34
2019-05-29T07:28:00.852Z,101807.52
2019-05-29T07:29:08.485Z,101813.64
2019-05-29T07:31:01.168Z,101815.03
2019-05-29T07:32:18.263Z,101817.39
2019-05-29T07:35:01.636Z,101811.92
2019-05-29T07:36:14.365Z,101816.55
2019-05-29T07:37:39.536Z,101814.62
2019-05-29T07:39:44.038Z,101816.97
2019-05-29T07:40:50.127Z,101812.95
2019-05-29T07:42:15.686Z,101813.77
2019-05-29T07:43:20.602Z,101817.67
2019-05-29T07:44:26.182Z,101818.53
2019-05-29T07:45:50.258Z,101817.19
2019-05-29T07:46:55.656Z,101816.97
2019-05-29T07:49:38.587Z,101820.46
2019-05-29T07:51:10.523Z,101816.59
2019-05-29T07:52:24.110Z,101823.66
2019-05-29T07:53:48.828Z,101821.57
2019-05-29T07:55:54.179Z,101822.64
2019-05-29T07:57:18.474Z,101821.64
2019-05-29T07:58:23.751Z,101825.09
2019-05-29T08:01:11.547Z,101822.48
2019-05-29T08:02:45.355Z,101826.38
2019-05-29T08:04:11.569Z,101828.58
2019-05-29T08:05:56.174Z,101825.16
2019-05-29T08:07:20.319Z,101829.06
2019-05-29T08:08:25.834Z,101831.73
2019-05-29T08:09:50.007Z,101824.19
2019-05-29T08:11:14.736Z,101831.25
2019-05-29T08:14:02.918Z,101834.25
2019-05-29T08:15:57.574Z,101827.41
2019-05-29T08:17:32.889Z,101829.48
2019-05-29T08:20:20.858Z,101828.48
2019-05-29T08:21:44.877Z,101835.06
2019-05-29T08:22:50.547Z,101833.35
2019-05-29T08:24:16.494Z,101834.84
2019-05-29T08:25:21.563Z,101837.86
2019-05-29T08:26:27.102Z,101832.87
2019-05-29T08:27:32.074Z,101834.94
2019-05-29T08:28:38.107Z,101831.62
2019-05-29T08:30:02.630Z,101834.04
2019-05-29T08:31:27.595Z,101833.07
2019-05-29T08:32:32.715Z,101833.07
2019-05-29T08:33:57.477Z,101833.07
2019-05-29T08:35:21.779Z,101832.31
2019-05-29T08:37:01.135Z,101831.20
2019-05-29T08:38:30.988Z,101835.64
2019-05-29T08:39:37.183Z,101831.36
2019-05-29T08:41:05.802Z,101824.91
2019-05-29T08:42:29.655Z,101830.12
2019-05-29T08:43:34.695Z,101834.98
2019-05-29T08:49:25.064Z,101830.12
2019-05-29T08:50:30.017Z,101828.17
2019-05-29T08:51:35.586Z,101825.83
2019-05-29T08:52:41.697Z,101826.56
2019-05-29T08:54:23.014Z,101827.27
2019-05-29T08:55:52.747Z,101826.90
2019-05-29T08:58:44.317Z,101824.16
2019-05-29T09:00:53.207Z,101823.79
2019-05-29T09:02:15.409Z,101831.55
2019-05-29T09:03:40.106Z,101832.89
2019-05-29T09:05:04.336Z,101824.48
2019-05-29T09:06:13.491Z,101825.50
2019-05-29T09:07:55.327Z,101829.24
2019-05-29T09:09:00.270Z,101829.45
2019-05-29T09:11:56.703Z,101823.92
2019-05-29T09:13:05.090Z,101823.02
2019-05-29T09:14:47.472Z,101822.41
2019-05-29T09:15:53.159Z,101821.28
2019-05-29T09:17:18.406Z,101819.94
2019-05-29T09:21:01.694Z,101823.69
2019-05-29T09:22:13.855Z,101826.58
2019-05-29T09:23:39.417Z,101825.60
2019-05-29T09:24:44.394Z,101824.75
2019-05-29T09:26:15.686Z,101827.64
2019-05-29T09:27:35.129Z,101830.20
2019-05-29T09:30:44.398Z,101832.15
2019-05-29T09:33:53.063Z,101831.81
2019-05-29T09:35:18.455Z,101832.15
2019-05-29T09:36:43.860Z,101832.15
2019-05-29T09:38:07.988Z,101834.55
2019-05-29T09:39:14.967Z,101839.31
2019-05-29T09:40:58.815Z,101837.33
2019-05-29T09:42:23.725Z,101835.23
2019-05-29T09:43:58.852Z,101838.76
2019-05-29T09:45:16.629Z,101835.44
2019-05-29T09:47:01.347Z,101830.93
2019-05-29T09:48:28.326Z,101837.23
2019-05-29T09:49:52.176Z,101839.00
2019-05-29T09:50:57.711Z,101834.13
2019-05-29T09:52:04.062Z,101829.33
2019-05-29T09:53:48.153Z,101832.55
2019-05-29T09:54:54.627Z,101833.65
2019-05-29T09:56:19.737Z,101836.75
2019-05-29T09:57:43.908Z,101837.32
2019-05-29T09:58:49.409Z,101833.02
2019-05-29T10:00:13.668Z,101837.25
2019-05-29T10:01:38.886Z,101832.61
2019-05-29T10:03:44.135Z,101841.36
2019-05-29T10:05:49.730Z,101838.19
2019-05-29T10:06:55.969Z,101840.02
2019-05-29T10:08:39.965Z,101840.70
2019-05-29T10:09:44.918Z,101835.02
2019-05-29T10:11:10.978Z,101839.03
2019-05-29T10:12:55.360Z,101835.34
2019-05-29T10:14:21.123Z,101831.04
2019-05-29T10:15:26.439Z,101840.23
2019-05-29T10:16:32.017Z,101834.09
2019-05-29T10:17:56.995Z,101841.73
2019-05-29T10:19:22.110Z,101835.10
2019-05-29T10:21:06.964Z,101840.88
2019-05-29T10:22:31.012Z,101830.50
2019-05-29T10:23:35.997Z,101833.88
2019-05-29T10:24:41.615Z,101836.28
2019-05-29T10:26:06.545Z,101838.84
2019-05-29T10:29:21.475Z,101836.07
2019-05-29T10:31:06.229Z,101836.92
2019-05-29T10:32:32.230Z,101835.71
2019-05-29T10:33:56.939Z,101825.91
2019-05-29T10:35:02.249Z,101833.59
2019-05-29T10:36:49.997Z,101833.59
2019-05-29T10:38:12.925Z,101833.23
2019-05-29T10:39:18.561Z,101833.76
2019-05-29T10:40:23.707Z,101834.45
2019-05-29T10:41:29.209Z,101834.33
2019-05-29T10:42:53.667Z,101834.03
2019-05-29T10:44:17.690Z,101832.05
2019-05-29T10:46:02.283Z,101832.90
2019-05-29T10:47:26.705Z,101825.05
2019-05-29T10:48:32.288Z,101826.10
2019-05-29T10:49:37.396Z,101829.35
2019-05-29T10:51:02.170Z,101823.85
2019-05-29T10:52:26.196Z,101823.56
2019-05-29T10:53:31.205Z,101824.62
2019-05-29T10:54:39.206Z,101822.16
2019-05-29T10:56:03.358Z,101821.19
2019-05-29T10:57:28.106Z,101823.09
2019-05-29T10:58:58.967Z,101823.09
2019-05-29T11:00:57.977Z,101814.88
2019-05-29T11:02:03.378Z,101822.44
2019-05-29T11:03:28.348Z,101817.42
2019-05-29T11:04:33.725Z,101819.82
2019-05-29T11:05:39.593Z,101815.99
2019-05-29T11:06:46.087Z,101816.68
2019-05-29T11:08:29.904Z,101813.87
2019-05-29T11:09:44.639Z,101819.30
2019-05-29T11:11:01.674Z,101821.05
2019-05-29T11:12:46.487Z,101818.06
2019-05-29T11:13:52.749Z,101819.11
2019-05-29T11:17:21.281Z,101813.74
2019-05-29T11:18:47.407Z,101817.83
2019-05-29T11:24:10.530Z,101810.23
2019-05-29T11:27:45.648Z,101817.14
2019-05-29T11:30:55.593Z,101811.05
2019-05-29T11:32:20.628Z,101808.55
2019-05-29T11:33:26.172Z,101810.13
2019-05-29T11:34:31.138Z,101813.98
2019-05-29T11:36:07.327Z,101810.31
2019-05-29T11:37:41.348Z,101805.43
2019-05-29T11:39:06.281Z,101802.61
2019-05-29T11:41:05.203Z,101807.33
2019-05-29T11:42:35.824Z,101799.27
2019-05-29T11:45:51.109Z,101804.47
2019-05-29T11:47:34.907Z,101796.77
2019-05-29T11:50:50.589Z,101802.56
2019-05-29T11:53:20.381Z,101798.78
2019-05-29T11:54:25.334Z,101795.56
2019-05-29T11:55:31.138Z,101799.33
2019-05-29T11:56:57.432Z,101800.02
2019-05-29T11:58:31.122Z,101799.70
2019-05-29T12:00:18.923Z,101802.40
2019-05-29T12:01:49.745Z,101802.04
2019-05-29T12:03:01.796Z,101799.93
2019-05-29T12:04:28.376Z,101801.28
2019-05-29T12:05:33.608Z,101803.83
2019-05-29T12:06:59.492Z,101794.06
2019-05-29T12:08:24.711Z,101800.06
2019-05-29T12:09:33.446Z,101795.98
2019-05-29T12:11:15.513Z,101798.31
2019-05-29T12:12:39.513Z,101800.86
2019-05-29T12:13:47.047Z,101801.05
2019-05-29T12:16:41.606Z,101794.74
2019-05-29T12:18:23.170Z,101799.13
2019-05-29T12:19:31.954Z,101804.70
2019-05-29T12:20:37.635Z,101802.73
2019-05-29T12:23:45.149Z,101805.47
2019-05-29T12:24:52.388Z,101790.68
2019-05-29T12:26:36.045Z,101792.52
2019-05-29T12:27:41.001Z,101793.50
2019-05-29T12:29:11.451Z,101794.85
2019-05-29T12:31:10.959Z,101798.75
2019-05-29T12:32:35.154Z,101789.22
2019-05-29T12:33:41.054Z,101790.25
2019-05-29T12:34:53.461Z,101791.66
2019-05-29T12:36:31.288Z,101793.19
2019-05-29T12:39:19.553Z,101794.41
2019-05-29T12:40:25.257Z,101795.94
2019-05-29T12:41:30.210Z,101797.01
2019-05-29T12:42:55.636Z,101799.34
2019-05-29T12:44:40.114Z,101797.01
2019-05-29T12:46:05.023Z,101788.72
2019-05-29T12:47:31.664Z,101794.77
2019-05-29T12:48:37.178Z,101790.05
2019-05-29T12:49:42.648Z,101791.89
2019-05-29T12:51:07.395Z,101797.77
2019-05-29T12:52:31.520Z,101787.69
2019-05-29T12:53:37.058Z,101790.91
2019-05-29T12:55:21.644Z,101786.74
2019-05-29T12:56:26.591Z,101782.40
2019-05-29T12:57:50.843Z,101781.73
2019-05-29T12:58:58.368Z,101777.55
2019-05-29T13:02:33.680Z,101776.22
2019-05-29T13:03:58.635Z,101773.39
2019-05-29T13:06:04.459Z,101785.05
2019-05-29T13:07:48.699Z,101783.09
2019-05-29T13:09:12.816Z,101780.08
2019-05-29T13:10:37.957Z,101780.58
2019-05-29T13:11:42.910Z,101780.22
2019-05-29T13:14:12.594Z,101782.55
2019-05-29T13:15:58.660Z,101783.18
2019-05-29T13:17:42.817Z,101779.67
2019-05-29T13:18:48.418Z,101785.06
2019-05-29T13:19:57.612Z,101777.22
2019-05-29T13:21:38.941Z,101780.94
2019-05-29T13:23:05.451Z,101773.90
2019-05-29T13:24:29.794Z,101772.91
2019-05-29T13:25:35.461Z,101776.63
2019-05-29T13:26:40.466Z,101774.65
2019-05-29T13:28:05.912Z,101774.65
2019-05-29T13:29:49.499Z,101776.31
2019-05-29T13:31:13.522Z,101773.84
2019-05-29T13:32:18.457Z,101775.02
2019-05-29T13:33:24.172Z,101772.17
2019-05-29T13:34:29.194Z,101772.03
2019-05-29T13:35:35.061Z,101769.34
2019-05-29T13:37:03.427Z,101773.24
2019-05-29T13:38:44.678Z,101766.65
2019-05-29T13:40:09.719Z,101763.89
2019-05-29T13:41:14.660Z,101761.86
2019-05-29T13:43:05.333Z,101762.53
2019-05-29T13:44:25.948Z,101762.53
2019-05-29T13:45:49.968Z,101756.13
2019-05-29T13:46:54.898Z,101763.21
2019-05-29T13:48:18.900Z,101760.88
2019-05-29T13:49:23.982Z,101761.30
2019-05-29T13:50:29.477Z,101759.67
2019-05-29T13:53:23.668Z,101762.76
2019-05-29T13:54:28.652Z,101756.56
2019-05-29T13:55:53.366Z,101761.12
2019-05-29T13:56:59.597Z,101753.72
2019-05-29T13:58:25.030Z,101753.08
2019-05-29T13:59:49.359Z,101762.22
2019-05-29T14:00:54.992Z,101754.34
2019-05-29T14:02:19.273Z,101762.80
2019-05-29T14:03:43.765Z,101755.56
2019-05-29T14:05:08.807Z,101759.66
2019-05-29T14:06:53.776Z,101754.97
2019-05-29T14:08:00.633Z,101752.30
2019-05-29T14:10:07.765Z,101763.40
2019-05-29T14:13:42.991Z,101755.97
2019-05-29T14:15:27.801Z,101750.70
2019-05-29T14:18:23.985Z,101753.84
2019-05-29T14:23:23.201Z,101751.12
2019-05-29T14:24:47.290Z,101752.64
2019-05-29T14:25:52.447Z,101755.55
2019-05-29T14:26:58.098Z,101753.84
2019-05-29T14:28:22.193Z,101747.25
2019-05-29T14:29:27.232Z,101755.33
2019-05-29T14:30:51.970Z,101749.45
2019-05-29T14:32:16.112Z,101746.93
2019-05-29T14:33:40.147Z,101750.27
2019-05-29T14:36:28.613Z,101747.89
2019-05-29T14:37:53.896Z,101747.40
2019-05-29T14:39:18.056Z,101745.73
2019-05-29T14:40:23.641Z,101743.36
2019-05-29T14:41:29.108Z,101750.27
2019-05-29T14:42:35.045Z,101750.80
2019-05-29T14:43:59.171Z,101748.92
2019-05-29T14:45:23.390Z,101751.62
2019-05-29T14:46:28.966Z,101753.49
2019-05-29T14:47:53.203Z,101748.75
2019-05-29T14:48:58.774Z,101752.12
2019-05-29T14:53:37.492Z,101752.44
2019-05-29T14:54:43.133Z,101746.02
2019-05-29T14:55:48.107Z,101746.66
2019-05-29T14:56:53.960Z,101751.38
2019-05-29T14:58:38.753Z,101751.52
2019-05-29T14:59:44.323Z,101752.34
2019-05-29T15:00:49.999Z,101747.63
2019-05-29T15:02:21.618Z,101749.30
2019-05-29T15:03:40.896Z,101755.67
2019-05-29T15:04:45.820Z,101747.27
2019-05-29T15:05:51.859Z,101748.09
2019-05-29T15:06:56.845Z,101742.70
2019-05-29T15:08:04.131Z,101745.61
2019-05-29T15:09:28.273Z,101747.63
2019-05-29T15:10:53.103Z,101746.14
2019-05-29T15:13:29.041Z,101749.36
2019-05-29T15:14:53.155Z,101749.36
2019-05-29T15:16:17.205Z,101748.36
2019-05-29T15:17:22.611Z,101747.05
2019-05-29T15:18:28.848Z,101746.88
2019-05-29T15:19:52.921Z,101745.20
2019-05-29T15:20:58.554Z,101747.92
2019-05-29T15:23:48.174Z,101752.23
2019-05-29T15:25:03.231Z,101747.70
2019-05-29T15:26:39.094Z,101753.62
2019-05-29T15:28:03.203Z,101753.64
2019-05-29T15:29:27.485Z,101755.83
2019-05-29T15:30:52.327Z,101755.39
2019-05-29T15:31:57.538Z,101756.91
2019-05-29T15:33:03.098Z,101762.66
2019-05-29T15:34:08.231Z,101751.38
2019-05-29T15:37:18.866Z,101753.03
2019-05-29T15:39:03.035Z,101751.87
2019-05-29T15:40:47.982Z,101752.52
2019-05-29T15:41:53.088Z,101751.00
2019-05-29T15:43:17.454Z,101747.25
2019-05-29T15:44:41.688Z,101748.59
2019-05-29T15:45:47.358Z,101751.47
2019-05-29T15:47:12.922Z,101747.58
2019-05-29T15:51:02.379Z,101740.66
2019-05-29T15:53:57.693Z,101745.19
2019-05-29T15:55:32.117Z,101743.52
2019-05-29T15:58:37.265Z,101739.45
2019-05-29T16:00:02.494Z,101735.91
2019-05-29T16:01:07.757Z,101744.84
2019-05-29T16:02:13.745Z,101741.97
2019-05-29T16:08:37.829Z,101748.19
2019-05-29T16:10:01.993Z,101742.80
2019-05-29T16:11:08.579Z,101742.12
2019-05-29T16:12:53.298Z,101743.47
2019-05-29T16:16:02.011Z,101744.31
2019-05-29T16:17:26.209Z,101734.53
2019-05-29T16:18:31.778Z,101733.36
2019-05-29T16:19:36.753Z,101737.72
2019-05-29T16:21:01.893Z,101741.77
2019-05-29T16:22:06.973Z,101736.38
2019-05-29T16:23:13.959Z,101735.37
2019-05-29T16:28:24.096Z,101727.94
2019-05-29T16:29:49.009Z,101729.64
2019-05-29T16:31:13.006Z,101727.27
2019-05-29T16:32:18.029Z,101729.11
2019-05-29T16:33:42.129Z,101721.03
2019-05-29T16:34:47.268Z,101724.92
2019-05-29T16:35:52.925Z,101718.69
2019-05-29T16:36:57.939Z,101726.27
2019-05-29T16:38:03.491Z,101723.58
2019-05-29T16:39:27.898Z,101728.12
2019-05-29T16:40:52.961Z,101721.56
2019-05-29T16:41:57.974Z,101718.52
2019-05-29T16:43:23.118Z,101724.40
2019-05-29T16:46:15.442Z,101719.83
2019-05-29T16:47:56.411Z,101726.22
2019-05-29T16:49:01.658Z,101724.05
2019-05-29T16:51:51.395Z,101719.16
2019-05-29T16:53:16.772Z,101716.47
2019-05-29T16:55:01.652Z,101715.97
2019-05-29T16:56:06.676Z,101710.58
2019-05-29T16:57:12.964Z,101712.92
2019-05-29T16:58:57.601Z,101714.77
2019-05-29T17:00:03.241Z,101714.77
2019-05-29T17:01:08.213Z,101713.56
2019-05-29T17:02:32.932Z,101715.59
2019-05-29T17:05:02.481Z,101713.08
2019-05-29T17:06:07.829Z,101716.09
2019-05-29T17:07:14.115Z,101716.44
2019-05-29T17:08:39.665Z,101716.27
2019-05-29T17:10:04.375Z,101717.79
2019-05-29T17:12:52.991Z,101713.08
2019-05-29T17:13:58.557Z,101719.11
2019-05-29T17:15:22.941Z,101715.74
2019-05-29T17:17:08.092Z,101717.73
2019-05-29T17:18:32.473Z,101717.41
2019-05-29T17:19:37.490Z,101716.70
2019-05-29T17:21:22.896Z,101719.58
2019-05-29T17:24:14.627Z,101713.20
2019-05-29T17:26:19.158Z,101716.70
2019-05-29T17:27:43.303Z,101719.08
2019-05-29T17:28:48.835Z,101712.34
2019-05-29T17:29:53.856Z,101715.05
2019-05-29T17:31:18.933Z,101719.94
2019-05-29T17:32:43.999Z,101721.28
2019-05-29T17:33:49.601Z,101718.73
2019-05-29T17:35:14.682Z,101725.11
2019-05-29T17:36:58.899Z,101723.77
2019-05-29T17:40:13.479Z,101725.79
2019-05-29T17:41:38.541Z,101723.09
2019-05-29T17:42:43.488Z,101721.25
2019-05-29T17:43:49.137Z,101723.09
2019-05-29T17:44:54.055Z,101729.83
2019-05-29T17:45:59.692Z,101733.02
2019-05-29T17:47:04.730Z,101725.79
2019-05-29T17:48:10.383Z,101724.94
2019-05-29T17:49:15.710Z,101728.84
2019-05-29T17:50:23.124Z,101726.78
2019-05-29T17:51:28.215Z,101730.82
2019-05-29T17:52:33.758Z,101728.13
2019-05-29T17:53:38.800Z,101736.56
2019-05-29T17:54:44.689Z,101733.52
2019-05-29T17:55:49.724Z,101734.55
2019-05-29T17:56:55.529Z,101734.19
2019-05-29T17:58:00.531Z,101736.89
2019-05-29T17:59:06.357Z,101737.53
2019-05-29T18:00:12.327Z,101741.25
2019-05-29T18:01:18.279Z,101739.05
2019-05-29T18:02:24.598Z,101738.55
2019-05-29T18:03:30.191Z,101739.91
2019-05-29T18:04:35.734Z,101740.75